UDYZ/EVN METAR and TAF weather

Enter ICAO airport designator
Station Type Date Time Source
UDYZ METAR 2019/08/22 20:00 UTC NOAA

UDYZ 222000Z 03012KT 9999 NSC 29/04 Q1008 R09/010070 NOSIG


Station Type Date Time Source
UDYZ Decoded METAR 2019/08/22 20:00 UTC NOAA

Station name not available
Aug 22, 2019 - 04:00 PM EDT / 2019.08.22 2000 UTC
Wind: from the NNE (030 degrees) at 14 MPH (12 KT):0
Visibility: greater than 7 mile(s):0
Temperature: 84 F (29 C)
Dew Point: 39 F (4 C)
Relative Humidity: 20%
Pressure (altimeter): 29.77 in. Hg (1008 hPa)
ob: UDYZ 222000Z 03012KT 9999 NSC 29/04 Q1008 R09/010070 NOSIG
cycle: 20

Station Type Date Time Source
UDYZ TAF 2019/08/22 18:00 UTC NOAA

TAF UDYZ 221702Z 2218/2318 07006KT CAVOK
TEMPO 2218/2222 03024G34KT

Example: see airport list